createdAt,value
2023-01-17T00:01:52.194Z,3.83
2023-01-17T00:04:37.409Z,3.76
2023-01-17T00:07:22.615Z,3.69
2023-01-17T00:09:54.609Z,3.63
2023-01-17T00:12:22.825Z,3.56
2023-01-17T00:14:50.629Z,3.58
2023-01-17T00:17:18.280Z,3.54
2023-01-17T00:20:03.620Z,3.81
2023-01-17T00:22:49.849Z,3.72
2023-01-17T00:25:41.664Z,3.69
2023-01-17T00:28:08.213Z,3.85
2023-01-17T00:30:34.834Z,3.92
2023-01-17T00:33:01.404Z,3.82
2023-01-17T00:35:30.318Z,3.79
2023-01-17T00:38:14.285Z,3.87
2023-01-17T00:40:43.359Z,3.86
2023-01-17T00:43:29.758Z,3.83
2023-01-17T00:46:15.474Z,3.87
2023-01-17T00:49:01.353Z,3.72
2023-01-17T00:51:47.521Z,3.63
2023-01-17T00:54:32.706Z,3.59
2023-01-17T00:57:20.238Z,3.65
2023-01-17T01:00:06.167Z,3.76
2023-01-17T01:02:52.165Z,3.76
2023-01-17T01:05:37.924Z,3.59
2023-01-17T01:08:34.844Z,3.52
2023-01-17T01:11:23.819Z,3.51
2023-01-17T01:14:10.439Z,3.51
2023-01-17T01:16:55.733Z,3.61
2023-01-17T01:19:41.074Z,3.55
2023-01-17T01:22:26.395Z,3.46
2023-01-17T01:25:11.651Z,3.38
2023-01-17T01:27:56.878Z,3.43
2023-01-17T01:30:43.622Z,3.43
2023-01-17T01:33:20.398Z,3.41
2023-01-17T01:35:50.457Z,3.41
2023-01-17T01:38:18.404Z,3.35
2023-01-17T01:40:48.229Z,3.26
2023-01-17T01:43:17.900Z,3.29
2023-01-17T01:45:52.236Z,3.40
2023-01-17T01:48:34.935Z,3.61
2023-01-17T01:51:06.805Z,3.48
2023-01-17T01:53:38.486Z,3.48
2023-01-17T01:56:10.677Z,3.53
2023-01-17T01:58:40.148Z,3.54
2023-01-17T02:01:09.865Z,3.46
2023-01-17T02:03:41.105Z,3.53
2023-01-17T02:06:21.058Z,3.50
2023-01-17T02:08:49.918Z,3.57
2023-01-17T02:11:17.830Z,3.46
2023-01-17T02:13:45.498Z,3.48
2023-01-17T02:16:32.952Z,3.48
2023-01-17T02:19:16.759Z,3.49
2023-01-17T02:21:55.559Z,3.46
2023-01-17T02:24:47.296Z,3.57
2023-01-17T02:27:25.945Z,3.61
2023-01-17T02:30:33.022Z,3.58
2023-01-17T02:33:17.867Z,3.61
2023-01-17T02:35:55.142Z,3.70
2023-01-17T02:38:32.256Z,3.56
2023-01-17T02:41:05.226Z,3.57
2023-01-17T02:43:33.876Z,3.64
2023-01-17T02:46:02.941Z,3.53
2023-01-17T02:48:33.015Z,3.70
2023-01-17T02:51:40.847Z,3.68
2023-01-17T02:54:27.537Z,3.54
2023-01-17T02:57:07.720Z,3.59
2023-01-17T02:59:45.335Z,3.63
2023-01-17T03:02:23.558Z,3.59
2023-01-17T03:04:56.555Z,3.62
2023-01-17T03:07:27.043Z,3.63
2023-01-17T03:09:59.380Z,3.54
2023-01-17T03:12:29.077Z,3.60
2023-01-17T03:14:56.968Z,3.74
2023-01-17T03:17:30.607Z,3.69
2023-01-17T03:19:58.464Z,3.71
2023-01-17T03:22:26.172Z,3.78
2023-01-17T03:24:53.860Z,3.75
2023-01-17T03:27:21.457Z,3.69
2023-01-17T03:29:49.113Z,3.80
2023-01-17T03:32:16.722Z,3.81
2023-01-17T03:34:45.727Z,3.83
2023-01-17T03:37:13.407Z,3.70
2023-01-17T03:39:41.068Z,3.73
2023-01-17T03:42:08.905Z,3.70
2023-01-17T03:44:36.580Z,3.65
2023-01-17T03:47:04.684Z,3.72
2023-01-17T03:49:32.397Z,3.68
2023-01-17T03:52:01.403Z,3.77
2023-01-17T03:54:29.057Z,3.69
2023-01-17T03:56:56.671Z,3.65
2023-01-17T03:59:24.472Z,3.74
2023-01-17T04:01:52.288Z,3.77
2023-01-17T04:04:20.040Z,3.81
2023-01-17T04:06:48.061Z,3.83
2023-01-17T04:09:17.109Z,3.88
2023-01-17T04:11:44.866Z,3.85
2023-01-17T04:14:12.526Z,3.84
2023-01-17T04:16:40.272Z,3.90
2023-01-17T04:19:07.964Z,3.94
2023-01-17T04:21:35.595Z,3.84
2023-01-17T04:24:03.278Z,4.04
2023-01-17T04:26:32.256Z,3.98
2023-01-17T04:28:59.925Z,4.04
2023-01-17T04:31:27.546Z,4.07
2023-01-17T04:33:55.266Z,4.04
2023-01-17T04:36:23.022Z,4.05
2023-01-17T04:38:50.695Z,4.03
2023-01-17T04:41:18.352Z,4.04
2023-01-17T04:43:47.392Z,4.11
2023-01-17T04:46:15.089Z,4.01
2023-01-17T04:48:42.837Z,4.17
2023-01-17T04:51:10.437Z,4.16
2023-01-17T04:53:38.131Z,4.12
2023-01-17T04:56:06.290Z,4.05
2023-01-17T04:58:34.055Z,4.13
2023-01-17T05:01:08.469Z,4.23
2023-01-17T05:03:36.215Z,4.22
2023-01-17T05:06:04.001Z,4.23
2023-01-17T05:08:31.643Z,4.35
2023-01-17T05:10:59.359Z,4.25
2023-01-17T05:13:27.317Z,4.28
2023-01-17T05:15:55.081Z,4.33
2023-01-17T05:18:24.120Z,4.25
2023-01-17T05:20:51.796Z,4.24
2023-01-17T05:23:19.615Z,4.20
2023-01-17T05:25:47.306Z,4.18
2023-01-17T05:28:15.792Z,4.14
2023-01-17T05:30:43.538Z,4.08
2023-01-17T05:33:11.385Z,3.99
2023-01-17T05:35:40.430Z,4.06
2023-01-17T05:38:08.120Z,4.01
2023-01-17T05:40:36.254Z,3.99
2023-01-17T05:43:04.544Z,4.05
2023-01-17T05:45:33.890Z,3.88
2023-01-17T05:48:02.276Z,3.96
2023-01-17T05:50:32.058Z,3.95
2023-01-17T05:53:02.861Z,3.91
2023-01-17T05:55:31.929Z,4.02
2023-01-17T05:58:00.364Z,4.07
2023-01-17T06:00:28.530Z,4.07
2023-01-17T06:02:57.867Z,4.06
2023-01-17T06:05:26.890Z,4.15
2023-01-17T06:07:54.718Z,4.13
2023-01-17T06:10:24.458Z,4.19
2023-01-17T06:13:01.967Z,4.12
2023-01-17T06:15:29.686Z,4.09
2023-01-17T06:17:57.604Z,4.06
2023-01-17T06:20:25.210Z,4.04
2023-01-17T06:22:52.986Z,4.06
2023-01-17T06:25:20.611Z,3.95
2023-01-17T06:27:50.316Z,3.88
2023-01-17T06:30:18.522Z,3.94
2023-01-17T06:32:46.154Z,3.94
2023-01-17T06:35:13.987Z,3.87
2023-01-17T06:37:41.581Z,3.88
2023-01-17T06:40:10.824Z,3.79
2023-01-17T06:42:38.519Z,3.85
2023-01-17T06:45:09.103Z,3.87
2023-01-17T06:47:39.052Z,3.87
2023-01-17T06:50:08.099Z,3.91
2023-01-17T06:52:36.133Z,3.81
2023-01-17T06:55:03.794Z,3.85
2023-01-17T06:57:31.571Z,3.87
2023-01-17T06:59:59.412Z,3.97
2023-01-17T07:02:28.531Z,3.90
2023-01-17T07:04:56.191Z,3.86
2023-01-17T07:07:24.826Z,3.95
2023-01-17T07:09:52.496Z,4.00
2023-01-17T07:12:20.122Z,3.97
2023-01-17T07:14:47.752Z,3.93
2023-01-17T07:17:15.404Z,3.94
2023-01-17T07:19:44.891Z,3.91
2023-01-17T07:22:12.626Z,3.92
2023-01-17T07:24:40.302Z,4.03
2023-01-17T07:27:08.733Z,4.08
2023-01-17T07:29:36.659Z,4.02
2023-01-17T07:32:04.343Z,4.02
2023-01-17T07:34:32.022Z,3.98
2023-01-17T07:37:01.908Z,3.95
2023-01-17T07:39:29.600Z,4.00
2023-01-17T07:41:57.294Z,3.94
2023-01-17T07:44:25.064Z,3.95
2023-01-17T07:46:52.784Z,3.95
2023-01-17T07:49:20.417Z,3.97
2023-01-17T07:51:48.560Z,3.90
2023-01-17T07:54:17.635Z,3.86
2023-01-17T07:56:47.075Z,3.82
2023-01-17T07:59:14.891Z,3.75
2023-01-17T08:01:42.611Z,3.70
2023-01-17T08:04:11.479Z,3.63
2023-01-17T08:06:42.960Z,3.67
2023-01-17T08:09:10.747Z,3.71
2023-01-17T08:11:39.805Z,3.68
2023-01-17T08:14:07.467Z,3.76
2023-01-17T08:16:35.159Z,3.73
2023-01-17T08:19:02.825Z,3.80
2023-01-17T08:21:30.449Z,3.84
2023-01-17T08:23:58.469Z,3.83
2023-01-17T08:26:26.117Z,3.88
2023-01-17T08:28:57.827Z,3.81
2023-01-17T08:31:25.596Z,3.82
2023-01-17T08:33:53.449Z,3.87
2023-01-17T08:36:21.200Z,3.96
2023-01-17T08:38:52.639Z,4.01
2023-01-17T08:41:20.847Z,3.96
2023-01-17T08:43:48.725Z,4.03
2023-01-17T08:46:18.693Z,4.02
2023-01-17T08:48:46.570Z,4.00
2023-01-17T08:51:14.633Z,3.97
2023-01-17T08:53:42.448Z,4.08
2023-01-17T08:56:10.497Z,4.02
2023-01-17T08:58:38.121Z,4.06
2023-01-17T09:01:07.106Z,4.02
2023-01-17T09:03:38.359Z,4.08
2023-01-17T09:06:10.302Z,4.03
2023-01-17T09:08:38.497Z,3.96
2023-01-17T09:11:07.361Z,4.05
2023-01-17T09:13:35.436Z,4.06
2023-01-17T09:16:03.556Z,4.12
2023-01-17T09:18:32.238Z,4.05
2023-01-17T09:21:10.206Z,4.01
2023-01-17T09:23:37.930Z,4.12
2023-01-17T09:26:05.813Z,4.08
2023-01-17T09:28:39.532Z,4.12
2023-01-17T09:31:08.898Z,4.22
2023-01-17T09:33:36.907Z,4.16
2023-01-17T09:36:06.534Z,4.19
2023-01-17T09:38:34.241Z,4.16
2023-01-17T09:41:03.781Z,4.25
2023-01-17T09:43:41.308Z,4.22
2023-01-17T09:46:22.640Z,4.25
2023-01-17T09:48:54.589Z,4.16
2023-01-17T09:51:25.115Z,4.19
2023-01-17T09:53:54.100Z,4.25
2023-01-17T09:56:29.550Z,4.26
2023-01-17T09:59:11.735Z,4.24
2023-01-17T10:01:48.233Z,4.18
2023-01-17T10:04:34.082Z,4.16
2023-01-17T10:07:14.407Z,4.11
2023-01-17T10:10:00.136Z,4.14
2023-01-17T10:12:37.690Z,4.11
2023-01-17T10:15:48.115Z,4.16
2023-01-17T10:18:32.927Z,4.14
2023-01-17T10:21:06.105Z,4.11
2023-01-17T10:24:03.915Z,4.20
2023-01-17T10:26:34.185Z,4.21
2023-01-17T10:29:05.487Z,4.15
2023-01-17T10:31:41.581Z,4.21
2023-01-17T10:34:19.583Z,4.23
2023-01-17T10:36:52.645Z,4.17
2023-01-17T10:39:24.554Z,4.06
2023-01-17T10:41:56.202Z,4.01
2023-01-17T10:44:31.443Z,3.98
2023-01-17T10:47:07.918Z,3.90
2023-01-17T10:49:37.278Z,3.79
2023-01-17T10:52:20.086Z,3.78
2023-01-17T10:54:59.256Z,3.79
2023-01-17T10:57:28.718Z,3.84
2023-01-17T11:00:00.998Z,3.80
2023-01-17T11:02:33.870Z,3.86
2023-01-17T11:05:05.592Z,3.83
2023-01-17T11:07:33.319Z,3.73
2023-01-17T11:10:02.365Z,3.69
2023-01-17T11:12:33.613Z,3.73
2023-01-17T11:15:17.776Z,3.69
2023-01-17T11:17:53.114Z,3.66
2023-01-17T11:20:29.185Z,3.65
2023-01-17T11:23:13.326Z,3.64
2023-01-17T11:25:50.604Z,3.56
2023-01-17T11:28:26.016Z,3.52
2023-01-17T11:30:55.732Z,3.61
2023-01-17T11:33:45.293Z,3.55
2023-01-17T11:36:18.690Z,3.52
2023-01-17T11:38:56.471Z,3.43
2023-01-17T11:41:28.006Z,3.42
2023-01-17T11:43:57.767Z,3.29
2023-01-17T11:46:28.120Z,3.21
2023-01-17T11:48:56.746Z,3.06
2023-01-17T11:51:28.605Z,2.96
2023-01-17T11:54:07.986Z,2.90
2023-01-17T11:56:38.078Z,2.81
2023-01-17T11:59:25.240Z,2.80
2023-01-17T12:02:05.836Z,2.69
2023-01-17T12:04:36.660Z,2.62
2023-01-17T12:07:18.752Z,2.54
2023-01-17T12:09:54.907Z,2.44
2023-01-17T12:12:51.110Z,2.40
2023-01-17T12:15:31.160Z,2.59
2023-01-17T12:18:19.017Z,2.63
2023-01-17T12:20:56.379Z,2.68
2023-01-17T12:23:52.719Z,2.71
2023-01-17T12:26:30.996Z,2.71
2023-01-17T12:29:31.793Z,2.79
2023-01-17T12:32:15.456Z,2.93
2023-01-17T12:34:50.821Z,2.93
2023-01-17T12:37:23.624Z,2.99
2023-01-17T12:39:58.297Z,3.04
2023-01-17T12:42:31.859Z,3.11
2023-01-17T12:45:06.536Z,3.17
2023-01-17T12:47:38.160Z,3.07
2023-01-17T12:50:16.920Z,3.20
2023-01-17T12:52:54.693Z,3.19
2023-01-17T12:55:34.491Z,3.21
2023-01-17T12:58:07.110Z,3.19
2023-01-17T13:00:40.034Z,3.27
2023-01-17T13:03:16.957Z,3.26
2023-01-17T13:05:48.516Z,3.28
2023-01-17T13:08:24.764Z,3.30
2023-01-17T13:10:57.242Z,3.33
2023-01-17T13:13:27.294Z,3.34
2023-01-17T13:16:01.864Z,3.40
2023-01-17T13:18:33.132Z,3.41
2023-01-17T13:21:17.036Z,3.46
2023-01-17T13:23:59.858Z,3.39
2023-01-17T13:26:39.220Z,3.44
2023-01-17T13:29:17.698Z,3.47
2023-01-17T13:31:50.500Z,3.47
2023-01-17T13:34:41.138Z,3.40
2023-01-17T13:37:23.498Z,3.46
2023-01-17T13:40:18.221Z,3.42
2023-01-17T13:42:55.642Z,3.45
2023-01-17T13:45:27.145Z,3.57
2023-01-17T13:48:25.630Z,3.59
2023-01-17T13:50:58.433Z,3.51
2023-01-17T13:53:57.700Z,3.46
2023-01-17T13:56:36.091Z,3.50
2023-01-17T13:59:22.088Z,3.47
2023-01-17T14:01:54.458Z,3.43
2023-01-17T14:04:24.966Z,3.43
2023-01-17T14:06:55.431Z,3.39
2023-01-17T14:09:27.571Z,3.44
2023-01-17T14:12:01.740Z,3.33
2023-01-17T14:14:47.618Z,3.31
2023-01-17T14:17:42.033Z,3.34
2023-01-17T14:20:44.179Z,3.37
2023-01-17T14:23:49.814Z,3.51
2023-01-17T14:26:37.674Z,3.48
2023-01-17T14:29:47.561Z,3.44
2023-01-17T14:32:17.710Z,3.52
2023-01-17T14:34:46.414Z,3.47
2023-01-17T14:37:19.649Z,3.48
2023-01-17T14:39:49.505Z,3.52
2023-01-17T14:42:21.020Z,3.52
2023-01-17T14:44:51.783Z,3.56
2023-01-17T14:47:20.267Z,3.49
2023-01-17T14:49:47.954Z,3.54
2023-01-17T14:52:19.001Z,3.61
2023-01-17T14:54:50.669Z,3.48
2023-01-17T14:57:29.050Z,3.48
2023-01-17T15:00:14.739Z,3.51
2023-01-17T15:02:44.137Z,3.41
2023-01-17T15:05:16.622Z,3.46
2023-01-17T15:07:48.572Z,3.37
2023-01-17T15:10:18.576Z,3.45
2023-01-17T15:12:47.689Z,3.42
2023-01-17T15:15:29.817Z,3.40
2023-01-17T15:18:21.105Z,3.55
2023-01-17T15:20:54.386Z,3.68
2023-01-17T15:23:25.984Z,3.45
2023-01-17T15:25:54.958Z,3.26
2023-01-17T15:28:22.735Z,3.22
2023-01-17T15:31:06.364Z,3.18
2023-01-17T15:33:35.069Z,3.29
2023-01-17T15:36:05.214Z,3.25
2023-01-17T15:38:39.018Z,3.25
2023-01-17T15:41:13.685Z,3.12
2023-01-17T15:43:42.968Z,3.00
2023-01-17T15:46:25.693Z,2.90
2023-01-17T15:48:53.492Z,2.84
2023-01-17T15:51:34.842Z,2.84
2023-01-17T15:54:35.474Z,2.72
2023-01-17T15:57:17.960Z,2.68
2023-01-17T15:59:48.242Z,2.61
2023-01-17T16:02:42.731Z,2.62
2023-01-17T16:05:41.819Z,2.57
2023-01-17T16:08:26.144Z,2.51
2023-01-17T16:10:56.723Z,2.47
2023-01-17T16:13:25.607Z,2.47
2023-01-17T16:15:53.346Z,2.48
2023-01-17T16:18:24.838Z,2.48
2023-01-17T16:20:59.352Z,2.49
2023-01-17T16:23:27.419Z,2.40
2023-01-17T16:25:55.181Z,2.42
2023-01-17T16:28:23.159Z,2.49
2023-01-17T16:30:53.812Z,2.49
2023-01-17T16:33:21.580Z,2.44
2023-01-17T16:35:51.079Z,2.38
2023-01-17T16:38:19.686Z,2.40
2023-01-17T16:40:48.061Z,2.41
2023-01-17T16:43:17.984Z,2.28
2023-01-17T16:45:47.768Z,2.34
2023-01-17T16:48:19.174Z,2.44
2023-01-17T16:50:50.400Z,2.33
2023-01-17T16:53:22.561Z,2.34
2023-01-17T16:55:53.774Z,2.37
2023-01-17T16:58:21.458Z,2.24
2023-01-17T17:00:49.272Z,2.22
2023-01-17T17:03:19.685Z,2.29
2023-01-17T17:05:56.211Z,2.32
2023-01-17T17:08:24.381Z,2.17
2023-01-17T17:10:52.619Z,2.15
2023-01-17T17:13:20.344Z,2.17
2023-01-17T17:15:48.686Z,2.13
2023-01-17T17:18:19.216Z,2.15
2023-01-17T17:20:46.962Z,2.06
2023-01-17T17:23:14.967Z,2.01
2023-01-17T17:25:42.627Z,1.99
2023-01-17T17:28:11.721Z,1.97
2023-01-17T17:30:39.348Z,1.97
2023-01-17T17:33:07.002Z,1.92
2023-01-17T17:35:36.094Z,1.85
2023-01-17T17:38:05.447Z,1.72
2023-01-17T17:40:35.434Z,1.70
2023-01-17T17:43:03.325Z,1.65
2023-01-17T17:45:31.047Z,1.66
2023-01-17T17:47:58.690Z,1.51
2023-01-17T17:50:26.308Z,1.51
2023-01-17T17:52:55.314Z,1.48
2023-01-17T17:55:22.939Z,1.35
2023-01-17T17:57:50.801Z,1.26
2023-01-17T18:00:19.661Z,1.16
2023-01-17T18:02:47.301Z,1.05
2023-01-17T18:05:15.097Z,0.97
2023-01-17T18:07:42.816Z,0.88
2023-01-17T18:10:12.331Z,0.82
2023-01-17T18:12:39.963Z,0.79
2023-01-17T18:15:08.392Z,0.80
2023-01-17T18:17:36.338Z,0.77
2023-01-17T18:20:07.369Z,0.73
2023-01-17T18:22:35.344Z,0.73
2023-01-17T18:25:02.987Z,0.68
2023-01-17T18:27:32.019Z,0.69
2023-01-17T18:30:00.431Z,0.70
2023-01-17T18:32:28.066Z,0.50
2023-01-17T18:34:55.713Z,0.43
2023-01-17T18:37:24.002Z,0.39
2023-01-17T18:39:52.639Z,0.40
2023-01-17T18:42:29.330Z,0.40
2023-01-17T18:44:58.509Z,0.43
2023-01-17T18:47:26.214Z,0.33
2023-01-17T18:49:54.010Z,0.23
2023-01-17T18:52:21.701Z,0.22
2023-01-17T18:54:50.162Z,0.17
2023-01-17T18:57:17.881Z,0.19
2023-01-17T18:59:45.508Z,0.16
2023-01-17T19:02:14.547Z,0.20
2023-01-17T19:04:42.220Z,0.14
2023-01-17T19:07:12.469Z,0.18
2023-01-17T19:09:40.135Z,0.12
2023-01-17T19:12:08.535Z,0.11
2023-01-17T19:14:36.185Z,0.11
2023-01-17T19:17:03.973Z,0.05
2023-01-17T19:19:33.285Z,-0.01
2023-01-17T19:22:01.068Z,0.02
2023-01-17T19:24:28.807Z,0.06
2023-01-17T19:26:56.495Z,0.05
2023-01-17T19:29:24.176Z,0.05
2023-01-17T19:31:51.870Z,0.05
2023-01-17T19:34:20.169Z,-0.01
2023-01-17T19:36:49.184Z,-0.07
2023-01-17T19:39:17.017Z,-0.04
2023-01-17T19:41:46.057Z,-0.11
2023-01-17T19:44:15.576Z,-0.16
2023-01-17T19:46:43.931Z,-0.12
2023-01-17T19:49:11.688Z,-0.18
2023-01-17T19:51:40.327Z,-0.20
2023-01-17T19:54:09.707Z,-0.22
2023-01-17T19:56:37.504Z,-0.26
2023-01-17T19:59:06.070Z,-0.30
2023-01-17T20:01:34.852Z,-0.32
2023-01-17T20:04:03.917Z,-0.28
2023-01-17T20:06:33.786Z,-0.29
2023-01-17T20:09:02.088Z,-0.27
2023-01-17T20:11:31.249Z,-0.26
2023-01-17T20:14:00.277Z,-0.29
2023-01-17T20:16:29.978Z,-0.39
2023-01-17T20:18:58.190Z,-0.42
2023-01-17T20:21:27.845Z,-0.42
2023-01-17T20:23:56.984Z,-0.42
2023-01-17T20:26:29.659Z,-0.42
2023-01-17T20:28:58.710Z,-0.45
2023-01-17T20:31:27.123Z,-0.50
2023-01-17T20:33:56.243Z,-0.57
2023-01-17T20:36:25.288Z,-0.66
2023-01-17T20:38:54.370Z,-0.72
2023-01-17T20:41:24.124Z,-0.77
2023-01-17T20:43:53.437Z,-0.83
2023-01-17T20:46:24.501Z,-0.86
2023-01-17T20:48:54.548Z,-0.81
2023-01-17T20:51:23.152Z,-0.79
2023-01-17T20:53:53.272Z,-0.77
2023-01-17T20:56:21.337Z,-0.78
2023-01-17T20:58:51.552Z,-0.86
2023-01-17T21:01:21.003Z,-0.84
2023-01-17T21:03:53.198Z,-0.83
2023-01-17T21:06:23.231Z,-0.87
2023-01-17T21:08:51.712Z,-0.83
2023-01-17T21:11:21.774Z,-0.77
2023-01-17T21:13:49.792Z,-0.87
2023-01-17T21:16:19.021Z,-1.00
2023-01-17T21:18:47.840Z,-0.94
2023-01-17T21:21:21.744Z,-0.91
2023-01-17T21:23:51.219Z,-0.90
2023-01-17T21:26:21.000Z,-0.92
2023-01-17T21:28:49.825Z,-0.91
2023-01-17T21:31:22.849Z,-0.91
2023-01-17T21:33:52.292Z,-0.95
2023-01-17T21:36:23.022Z,-0.96
2023-01-17T21:38:52.967Z,-0.96
2023-01-17T21:41:21.343Z,-0.97
2023-01-17T21:43:49.072Z,-0.99
2023-01-17T21:46:16.791Z,-1.01
2023-01-17T21:48:45.331Z,-1.10
2023-01-17T21:51:13.038Z,-1.10
2023-01-17T21:53:42.076Z,-1.04
2023-01-17T21:56:30.871Z,-1.02
2023-01-17T21:58:59.271Z,-1.07
2023-01-17T22:01:29.399Z,-1.19
2023-01-17T22:03:58.833Z,-1.20
2023-01-17T22:06:28.889Z,-1.15
2023-01-17T22:08:58.442Z,-1.13
2023-01-17T22:11:29.926Z,-1.10
2023-01-17T22:13:59.242Z,-1.13
2023-01-17T22:16:27.318Z,-1.22
2023-01-17T22:18:55.086Z,-1.22
2023-01-17T22:21:24.693Z,-1.25
2023-01-17T22:23:53.863Z,-1.24
2023-01-17T22:26:25.648Z,-1.25
2023-01-17T22:28:53.730Z,-1.30
2023-01-17T22:31:24.105Z,-1.36
2023-01-17T22:33:53.564Z,-1.39
2023-01-17T22:36:21.649Z,-1.20
2023-01-17T22:38:49.427Z,-1.26
2023-01-17T22:41:20.100Z,-1.33
2023-01-17T22:43:50.677Z,-1.37
2023-01-17T22:46:20.067Z,-1.47
2023-01-17T22:48:47.929Z,-1.51
2023-01-17T22:51:18.288Z,-1.52
2023-01-17T22:53:47.095Z,-1.55
2023-01-17T22:56:16.863Z,-1.32
2023-01-17T22:58:45.538Z,-1.36
2023-01-17T23:01:17.067Z,-1.37
2023-01-17T23:03:46.303Z,-1.37
2023-01-17T23:06:16.318Z,-1.46
2023-01-17T23:08:45.821Z,-1.48
2023-01-17T23:11:42.497Z,-1.46
2023-01-17T23:14:13.798Z,-1.47
2023-01-17T23:17:02.513Z,-1.42
2023-01-17T23:19:34.717Z,-1.51
2023-01-17T23:22:22.279Z,-1.55
2023-01-17T23:24:52.016Z,-1.53
2023-01-17T23:27:40.108Z,-1.49
2023-01-17T23:30:11.004Z,-1.49
2023-01-17T23:32:41.122Z,-1.51
2023-01-17T23:35:09.047Z,-1.50
2023-01-17T23:37:54.206Z,-1.46
2023-01-17T23:40:21.873Z,-1.45
2023-01-17T23:43:07.125Z,-1.49
2023-01-17T23:45:38.742Z,-1.55
2023-01-17T23:48:10.653Z,-1.62
2023-01-17T23:50:39.556Z,-1.57
2023-01-17T23:53:07.900Z,-1.57
2023-01-17T23:55:37.241Z,-1.59
2023-01-17T23:58:05.267Z,-1.61
